Punitz-Güssing Airport LOGG

Flugplatz Daten

Name: Punitz-Güssing Airport

Ident: LOGG

Lat: 47,14653015

Long: 16,31684303

Platzhöhe: 950 ft

IataCode:

City: Punitz

Metar

2017/07/13 01:55
MMCS 130155Z 21010G20KT 8SM TSRA OVC040CB 20/16 A3004 RMK 8/9// FTQ LTGICCG RWY WATER LOGGED SHE50

Taf

Gewünschte Webcam nicht vorhanden? Dann fügen Sie eine hinzu. Sie wird dann so schnell wie möglich freigeschaltet
Url: Title: